createdAt,value
2023-03-29T00:00:13.282Z,90955.95
2023-03-29T00:08:56.336Z,90881.38
2023-03-29T00:17:21.166Z,90818.74
2023-03-29T00:25:45.482Z,90759.61
2023-03-29T00:34:08.382Z,90708.04
2023-03-29T00:42:31.358Z,90695.69
2023-03-29T00:51:00.602Z,90716.13
2023-03-29T00:59:26.077Z,90715.82
2023-03-29T01:08:06.701Z,90694.30
2023-03-29T01:16:33.191Z,90662.63
2023-03-29T01:25:16.673Z,90619.23
2023-03-29T01:33:44.485Z,90582.70
2023-03-29T01:42:16.885Z,90583.58
2023-03-29T01:50:56.163Z,90593.05
2023-03-29T01:59:24.067Z,90557.20
2023-03-29T02:07:48.751Z,90503.38
2023-03-29T02:16:13.966Z,90452.70
2023-03-29T02:24:39.076Z,90397.71
2023-03-29T02:33:11.193Z,90346.17
2023-03-29T02:41:37.230Z,90292.35
2023-03-29T02:50:01.617Z,90251.52
2023-03-29T02:58:28.736Z,90258.05
2023-03-29T03:06:53.647Z,90285.63
2023-03-29T03:15:16.917Z,90283.56
2023-03-29T03:23:40.646Z,90263.23
2023-03-29T03:32:04.395Z,90229.17
2023-03-29T03:41:00.141Z,90180.98
2023-03-29T03:49:25.259Z,90131.35
2023-03-29T03:57:48.488Z,90099.69
2023-03-29T04:06:13.853Z,90108.94
2023-03-29T04:15:03.865Z,90158.98
2023-03-29T04:23:27.273Z,90180.95
2023-03-29T04:31:50.686Z,90175.15
2023-03-29T04:40:50.713Z,90168.11
2023-03-29T04:49:33.397Z,90167.36
2023-03-29T04:57:56.588Z,90177.20
2023-03-29T05:06:30.301Z,90228.48
2023-03-29T05:14:55.532Z,90332.48
2023-03-29T05:23:21.531Z,90417.65
2023-03-29T05:32:05.023Z,90476.92
2023-03-29T05:40:31.475Z,90537.73
2023-03-29T05:49:14.759Z,90732.34
2023-03-29T05:57:48.333Z,91486.63
2023-03-29T06:06:12.414Z,92003.47
2023-03-29T06:14:37.498Z,92129.95
2023-03-29T06:23:15.843Z,92243.80
2023-03-29T06:31:39.206Z,92412.36
2023-03-29T06:40:06.385Z,92569.72
2023-03-29T06:48:39.913Z,92801.64
2023-03-29T06:57:08.030Z,93086.10
2023-03-29T07:05:31.761Z,93261.30
2023-03-29T07:13:56.251Z,93339.42
2023-03-29T07:22:19.457Z,93372.20
2023-03-29T07:30:46.847Z,93355.27
2023-03-29T07:39:13.682Z,93317.88
2023-03-29T07:47:41.264Z,93318.75
2023-03-29T07:56:05.564Z,93331.58
2023-03-29T08:04:45.062Z,93345.30
2023-03-29T08:13:14.028Z,93334.79
2023-03-29T08:21:56.879Z,93355.02
2023-03-29T08:30:21.308Z,93411.91
2023-03-29T08:38:44.846Z,93459.48
2023-03-29T08:47:26.654Z,93514.02
2023-03-29T08:55:52.984Z,93630.98
2023-03-29T09:04:37.930Z,93720.81
2023-03-29T09:13:34.818Z,93677.54
2023-03-29T09:22:02.969Z,93699.59
2023-03-29T09:30:34.694Z,93777.14
2023-03-29T09:39:00.902Z,93788.50
2023-03-29T09:47:36.186Z,93830.89
2023-03-29T09:56:02.220Z,93864.09
2023-03-29T10:04:44.970Z,93875.85
2023-03-29T10:13:17.254Z,93853.34
2023-03-29T10:21:42.234Z,93887.04
2023-03-29T10:30:18.883Z,93957.77
2023-03-29T10:38:42.057Z,93999.59
2023-03-29T10:47:20.400Z,94025.08
2023-03-29T10:56:00.893Z,94038.60
2023-03-29T11:04:45.869Z,94027.84
2023-03-29T11:13:31.602Z,94050.29
2023-03-29T11:22:13.037Z,94107.35
2023-03-29T11:30:56.939Z,94186.10
2023-03-29T11:39:20.318Z,94212.61
2023-03-29T11:47:46.915Z,94209.04
2023-03-29T11:56:16.989Z,94231.70
2023-03-29T12:04:49.689Z,94255.95
2023-03-29T12:13:19.139Z,94265.73
2023-03-29T12:21:44.451Z,94312.23
2023-03-29T12:30:28.129Z,94313.77
2023-03-29T12:38:52.911Z,94338.17
2023-03-29T12:47:43.226Z,94324.49
2023-03-29T12:56:08.771Z,94351.44
2023-03-29T13:05:01.257Z,94441.25
2023-03-29T13:13:29.743Z,94452.16
2023-03-29T13:22:17.612Z,94481.06
2023-03-29T13:30:59.042Z,94488.05
2023-03-29T13:39:24.363Z,94494.83
2023-03-29T13:48:02.335Z,94477.45
2023-03-29T13:56:37.282Z,94475.69
2023-03-29T14:05:04.255Z,94476.29
2023-03-29T14:13:28.897Z,94510.12
2023-03-29T14:21:53.277Z,94486.84
2023-03-29T14:30:27.596Z,94465.52
2023-03-29T14:38:53.917Z,94467.86
2023-03-29T14:47:31.595Z,94506.46
2023-03-29T14:55:55.751Z,94521.36
2023-03-29T15:04:18.888Z,94514.10
2023-03-29T15:12:42.525Z,94521.77
2023-03-29T15:21:08.366Z,94511.73
2023-03-29T15:29:44.035Z,94469.86
2023-03-29T15:38:07.285Z,94418.17
2023-03-29T15:46:30.280Z,94371.38
2023-03-29T15:54:53.336Z,94317.32
2023-03-29T16:03:16.448Z,94229.78
2023-03-29T16:11:41.525Z,94119.24
2023-03-29T16:20:05.633Z,94034.84
2023-03-29T16:28:28.730Z,93975.69
2023-03-29T16:36:53.086Z,93938.33
2023-03-29T16:45:18.121Z,93900.00
2023-03-29T16:53:42.145Z,93827.98
2023-03-29T17:02:05.085Z,93719.84
2023-03-29T17:10:28.515Z,93590.77
2023-03-29T17:18:51.941Z,93444.23
2023-03-29T17:27:15.631Z,93302.81
2023-03-29T17:35:41.746Z,93166.95
2023-03-29T17:44:05.490Z,93046.66
2023-03-29T17:52:28.396Z,92922.38
2023-03-29T18:00:51.629Z,92772.39
2023-03-29T18:09:14.915Z,92656.69
2023-03-29T18:17:38.331Z,92570.86
2023-03-29T18:26:04.083Z,92482.80
2023-03-29T18:34:28.198Z,92398.41
2023-03-29T18:42:52.005Z,92316.22
2023-03-29T18:51:16.259Z,92235.02
2023-03-29T18:59:39.591Z,92176.31
2023-03-29T19:08:06.199Z,92117.69
2023-03-29T19:16:29.135Z,92070.14
2023-03-29T19:24:52.817Z,92039.85
2023-03-29T19:33:16.161Z,92017.47
2023-03-29T19:41:41.408Z,92000.27
2023-03-29T19:50:07.045Z,91998.85
2023-03-29T19:58:30.788Z,91997.41
2023-03-29T20:06:53.642Z,92002.86
2023-03-29T20:15:16.979Z,92015.28
2023-03-29T20:23:40.365Z,92028.47
2023-03-29T20:32:03.891Z,92041.11
2023-03-29T20:40:29.193Z,92055.08
2023-03-29T20:48:55.080Z,92061.80
2023-03-29T20:57:20.961Z,92071.52
2023-03-29T21:05:44.710Z,92086.54
2023-03-29T21:14:09.295Z,92102.01
2023-03-29T21:22:34.950Z,92110.35
2023-03-29T21:30:58.521Z,92133.05
2023-03-29T21:39:21.677Z,92170.27
2023-03-29T21:47:44.711Z,92186.89
2023-03-29T21:56:09.068Z,92164.62
2023-03-29T22:04:37.138Z,92125.88
2023-03-29T22:13:01.059Z,92096.18
2023-03-29T22:21:30.891Z,92104.63
2023-03-29T22:29:53.938Z,92139.70
2023-03-29T22:38:16.774Z,92191.67
2023-03-29T22:46:39.852Z,92254.73
2023-03-29T22:55:02.710Z,92331.66
2023-03-29T23:03:26.944Z,92388.30
2023-03-29T23:11:50.346Z,92440.33
2023-03-29T23:20:14.244Z,92480.94
2023-03-29T23:28:37.668Z,92529.26
2023-03-29T23:37:00.577Z,92576.73
2023-03-29T23:45:23.437Z,92611.29
2023-03-29T23:53:47.001Z,92634.83
